aviador You're here:

YLRE Decoded Metar

in
Report Time2017-12-15 19:00:00
UTC Time2017-12-15 19:52:55
Flight Rules vfr VFR
Wind050° at 12 kt
W.Decomp.*RWY 04: 11.8 kt HW 2.1 kt RCW
W.Rank050° ranks 1
Current wind is above 050° avg. (9.5)
Visibility9999 m
Phenomena:N/A
Clouds:N/A
Expected CloudBase > 5,600 ft AGL from Temp-Dew spread
CeilingNone
Temp26°C
Dew Point12°C (42% RH)
AAT22.3°C
QNH1010 hPa
Raw Report
METAR YLRE 151900Z AUTO 05012KT 9999 // NCD 26/12 Q1010=

Extra information for YLRE:More info

Social comments